This is the latest recevied weather packets stored in our database for station/object SQ9IWE-13. If no packets are shown the sender has not sent any weather packets the latest 1 day(s).
| Time | Temp. | Humidity | Pressure | Rain* | Wind** | Luminosity | Snow |
|---|---|---|---|---|---|---|---|
| 1778092201 | 20° C | 60% | 1005.4 hPa | - | - | - | - |
| 1778091001 | 20.56° C | 60% | - | - | - | - | - |
| 1778090401 | 20.56° C | 60% | 1005.3 hPa | - | - | - | - |
| 1778089801 | 21.11° C | 58% | 1005.3 hPa | - | - | - | - |
| 1778089201 | 21.11° C | 58% | 1005.2 hPa | - | - | - | - |
| 1778088601 | 20.56° C | 60% | 1005.2 hPa | - | - | - | - |
| 1778088001 | 20.56° C | 64% | 1005.3 hPa | - | - | - | - |
| 1778086801 | 20° C | 68% | 1005.3 hPa | - | - | - | - |
| 1778074201 | 25° C | 44% | 1006.2 hPa | - | - | - | - |
| 1778071801 | 25° C | 45% | 1006.4 hPa | - | - | - | - |
| 1778071201 | 24.44° C | 46% | 1006.5 hPa | - | - | - | - |
| 1778070001 | 25° C | 45% | 1006.7 hPa | - | - | - | - |
| 1778069401 | 25° C | 44% | 1006.7 hPa | - | - | - | - |
| 1778068801 | 25° C | 45% | 1006.5 hPa | - | - | - | - |
| 1778068201 | 26.11° C | 42% | 1006.7 hPa | - | - | - | - |
| 1778067602 | 28.33° C | 40% | 1006 hPa | - | - | - | - |
| 1778067001 | 27.78° C | 41% | 1006.7 hPa | - | - | - | - |
| 1778066401 | 26.67° C | 42% | 1006.8 hPa | - | - | - | - |
| 1778065801 | 27.22° C | 42% | 1006.7 hPa | - | - | - | - |
| 1778065201 | 27.22° C | 42% | 1006.7 hPa | - | - | - | - |
| 1778064601 | 26.67° C | 43% | 1006.8 hPa | - | - | - | - |
| 1778064001 | 26.67° C | 44% | 1006.8 hPa | - | - | - | - |
| 1778063401 | 26.67° C | 43% | 1006.8 hPa | - | - | - | - |
| 1778062801 | 25° C | 48% | 1007 hPa | - | - | - | - |
| 1778062201 | 23.89° C | 48% | - | - | - | - | - |
* Rain since midnight (hover to see other rain measurements)
** Current wind speed in m/s (hover to see current wind gust speed)